KEVW/EVW METAR and TAF weather

Enter ICAO airport designator
Station Type Date Time Source
KEVW METAR 2020/09/20 09:53 UTC NOAA

KEVW 200953Z AUTO 16005KT 10SM CLR 05/01 A3025 RMK AO2 SLP193 T00500006


Station Type Date Time Source
KEVW Decoded METAR 2020/09/20 09:53 UTC NOAA

EVANSTON-UINTA COUNTY FIELD, WY, United States (KEVW) 41-16N 111-02W 2177M
Sep 20, 2020 - 05:53 AM EDT / 2020.09.20 0953 UTC
Wind: from the SSE (160 degrees) at 6 MPH (5 KT):0
Visibility: 10 mile(s):0
Sky conditions: clear
Temperature: 41.0 F (5.0 C)
Dew Point: 33.1 F (0.6 C)
Relative Humidity: 73%
Pressure (altimeter): 30.25 in. Hg (1024 hPa)
ob: KEVW 200953Z AUTO 16005KT 10SM CLR 05/01 A3025 RMK AO2 SLP193 T00500006
cycle: 10

Station Type Date Time Source
KEVW TAF 2020/09/20 06:39 UTC NOAA

TAF KEVW 200537Z 2006/2106 02005KT P6SM SKC
FM200900 23008KT P6SM SKC
FM201800 25012G20KT P6SM SKC
FM210200 28010KT P6SM SKC

Example: see airport list